Hamer, South Carolina
Current Conditions -  °F | °C
As of 8:35 AM on Monday 22 Dec 2014 (Local Time) from KLBT Reporting Station
Light Rain Light Rain  
Wind Chill: 35°   Ceiling: 700
Heat Index: 41°   Visibility: 3mi
Dew Point: 39°   Wind: 9mph
Humidity: 93%   Direction: 50°NE
Pressure: 30.11"   Gusts: NA
Location:  34.48°N, 79.33°W
Report Text: KLBT 221335Z AUTO 05008KT 3SM -RA BR OVC007 05/04 A3011 RMK AO2 P0003 T00500039
Loading
Personal Weather Stations






























Interactive Weather Map New forecast layout! Learn more

10-Day Weather Forecast

Advertisements
Track Severe Weather on mobile